nws-alerts: Checking more than four warning/county codes can delay the loading of your pages. You should use a cron job to get the data.

Nearby METAR Weather Reports

 

KDMA - Davis/Tucson, Arizona, USA
Distance from station: W 21mi, 34km
Updated: 07/20/2018 6:58am
Clear
Clear
 Wind from SSE
Wind: SSE 5 mph , 7 km/h
Temperature: 82°F , 28°C
Heat Index: 85°F , 29°C
Dew Point: 68°F , 20°C
Humidity: 62%
Barometer: 30.02 inHg , 1016.6 hPa
Clouds: Clear
Visibility: 10 miles , 16 km
2018/07/20 13:58 KDMA 201358Z AUTO 16004KT 10SM CLR 28/20 A3002 RMK AO2 SLP117 T02760196 $
KTUS - Tucson, Arizona, USA
Distance from station: W 26mi, 42km
Updated: 07/20/2018 6:53am
Clear
Clear
 Wind from SSW
Wind: SSW 3 mph , 6 km/h
Temperature: 81°F , 27°C
Heat Index: 84°F , 29°C
Dew Point: 68°F , 20°C
Humidity: 66%
Barometer: 30.03 inHg , 1016.9 hPa
Clouds: Clear
Visibility: 10 miles , 16 km
2018/07/20 13:53 KTUS 201353Z 20003KT 10SM CLR 27/20 A3003 RMK AO2 SLP118 T02670200
 
KALK - Pioneer Airfield, Arizona, USA
Distance from station: S 37mi, 60km
Updated: 07/20/2018 6:56am
Partly cloudy
Partly cloudy
 Wind from W
Wind: W 6 mph , 9 km/h
Temperature: 73°F , 23°C
Dew Point: 64°F , 18°C
Humidity: 74%
Barometer: 30.18 inHg , 1022 hPa
Clouds: Partly cloudy
Visibility: 10 miles , 16 km
Cloud details: Partly cloudy 11000 ft
2018/07/20 13:56 KALK 201356Z AUTO 27005KT 10SM SCT110 23/18 A3018 RMK AO2 SLP124 T02280183
KRYN - Tucson/Ryan Fld, Arizona, USA
Distance from station: W 39mi, 62km
Updated: 07/20/2018 6:45am
Clear
Clear
 Wind from calm
Wind: Calm
Temperature: 81°F , 27°C
Heat Index: 85°F , 29°C
Dew Point: 72°F , 22°C
Humidity: 74%
Barometer: 30.02 inHg , 1016.6 hPa
Clouds: Clear
Visibility: 10 miles , 16 km
2018/07/20 13:45 KRYN 201345Z 00000KT 10SM CLR 27/22 A3002
 
KFHU - Fort Huachuca, Arizona, USA
Distance from station: SSE 39mi, 63km
Updated: 07/20/2018 6:58am
Clear
Clear
 Wind from SSE
Wind: SSE 3 mph , 6 km/h
Temperature: 79°F , 26°C
Dew Point: 64°F , 18°C
Humidity: 61%
Barometer: 30.17 inHg , 1021.7 hPa
Clouds: Clear
Visibility: 10 miles , 16 km
2018/07/20 13:58 KFHU 201358Z AUTO 16003KT 10SM CLR 26/18 A3017 RMK AO2 SLP136 T02560182
KOLS - Nogales, Arizona, USA
Distance from station: SSW 54mi, 86km
Updated: 07/20/2018 6:54am
Clear
Clear
 Wind from calm
Wind: Calm
Temperature: 73°F , 23°C
Dew Point: 66°F , 19°C
Humidity: 78%
Barometer: 30.11 inHg , 1019.6 hPa
Clouds: Clear
Visibility: 10 miles , 16 km
2018/07/20 13:54 KOLS 201354Z AUTO 00000KT 10SM CLR 23/19 A3011 RMK AO2 SLP132 T02280194
 
KDUG - Douglas Bisbee, Arizona, USA
Distance from station: SE 71mi, 114km
Updated: 07/20/2018 6:56am
Clear
Clear
 Wind from ESE
Wind: ESE 6 mph , 9 km/h
Temperature: 73°F , 23°C
Dew Point: 63°F , 17°C
Humidity: 69%
Barometer: 30.14 inHg , 1020.7 hPa
Clouds: Clear
Visibility: 10 miles , 16 km
2018/07/20 13:56 KDUG 201356Z AUTO 12005KT 10SM CLR 23/17 A3014 RMK AO2 SLP133 T02280172
KSAD - Safford, Arizona, USA
Distance from station: NE 71mi, 114km
Updated: 07/20/2018 6:51am
Clear
Clear
 Wind from calm
Wind: Calm
Temperature: 81°F , 27°C
Heat Index: 83°F , 28°C
Dew Point: 64°F , 18°C
Humidity: 58%
Barometer: 30.03 inHg , 1016.9 hPa
Clouds: Clear
Visibility: 10 miles , 16 km
2018/07/20 13:51 KSAD 201351Z AUTO 00000KT 10SM CLR 27/18 A3003 RMK AO2 SLP110 T02670178
 
KCGZ - Casa Granda, Arizona, USA
Distance from station: NW 93mi, 149km
Updated: 07/20/2018 6:56am
Clear
Clear
 Wind from S
Wind: S 7 mph , 11 km/h
Temperature: 88°F , 31°C
Heat Index: 90°F , 32°C
Dew Point: 64°F , 18°C
Humidity: 46%
Barometer: 29.94 inHg , 1013.9 hPa
Clouds: Clear
Visibility: 10 miles , 16 km
2018/07/20 13:56 KCGZ 201356Z AUTO 19006KT 10SM CLR 31/18 A2994 RMK AO2 SLP117 T03060183 $
KLSB - Lordsburg, New Mexico, USA
Distance from station: E 106mi, 171km
Updated: 02/26/2018 1:22pm
NOT Current
Clear
Clear
 Wind from ESE
Wind: ESE 13 mph , 20 km/h, Gust: 18 mph , 30 km/h
Temperature: 63°F , 17°C
Dew Point: 10°F , -12°C
Humidity: 13%
Barometer: 30.04 inHg , 1017.3 hPa
Clouds: Clear
Visibility: 10 miles , 16 km
2018/02/26 20:22 KLSB 262022Z AUTO 11011G16KT 090V150 10SM CLR 17/M12 A3004
 
KPHX - Phoenix/Sky Hrbr, Arizona, USA
Distance from station: NW 126mi, 202km
Updated: 07/20/2018 6:51am
Partly cloudy
Partly cloudy
 Wind from WNW
Wind: WNW 12 mph , 19 km/h
Temperature: 91°F , 33°C
Heat Index: 93°F , 34°C
Dew Point: 64°F , 18°C
Humidity: 41%
Barometer: 29.87 inHg , 1011.5 hPa
Clouds: Partly cloudy
Visibility: 10 miles , 16 km
Cloud details: Few Clouds 12000 ft
Partly cloudy 25000 ft
2018/07/20 13:51 KPHX 201351Z 29010KT 10SM FEW120 SCT250 33/18 A2987 RMK AO2 SLP094 T03280178
KGXF - Gila Bend (aaf), Arizona, USA
Distance from station: WNW 139mi, 223km
Updated: 07/20/2018 6:58am
Clear
Clear
 Wind from calm
Wind: Calm
Temperature: 86°F , 30°C
Heat Index: 88°F , 31°C
Dew Point: 64°F , 18°C
Humidity: 49%
Barometer: 29.88 inHg , 1011.9 hPa
Clouds: Clear
Visibility: 9 miles , 14 km
2018/07/20 13:58 KGXF 201358Z 00000KT 9SM CLR 30/18 A2988 RMK AO2A SLP104 T03020180
 
KSVC - Silver City, New Mexico, USA
Distance from station: ENE 142mi, 228km
Updated: 07/20/2018 7:35am
Overcast
Overcast
 Wind from W
Wind: W 8 mph , 13 km/h
Temperature: 75°F , 24°C
Dew Point: 54°F , 12°C
Humidity: 47%
Barometer: 30.22 inHg , 1023.4 hPa
Clouds: Overcast
Visibility: 10 miles , 16 km
Cloud details: Overcast 11000 ft
2018/07/20 14:35 KSVC 201435Z AUTO 28007KT 10SM OVC110 24/12 A3022 RMK AO2 T02420124
KLUF - Luke Afb/Glendal, Arizona, USA
Distance from station: NW 144mi, 232km
Updated: 07/20/2018 6:58am
Clear
Clear
 Wind from SSW
Wind: SSW 14 mph , 22 km/h
Temperature: 91°F , 33°C
Dew Point: 61°F , 16°C
Humidity: 36%
Barometer: 29.87 inHg , 1011.5 hPa
Clouds: Clear
Visibility: 10 miles , 16 km
2018/07/20 13:58 KLUF 201358Z AUTO 21012KT 10SM CLR 33/16 A2987 RMK AO2 SLP098 T03250163 $